sensor_id;sensor_type;location;lat;lon;timestamp;pressure;altitude;pressure_sealevel;temperature;humidity
68137;BME280;54939;50.826;9.030;2022-07-11T00:00:14;99275.78;;;23.59;40.01
68137;BME280;54939;50.826;9.030;2022-07-11T00:00:44;99271.03;;;23.54;40.17
68137;BME280;54939;50.826;9.030;2022-07-11T00:01:14;99269.56;;;23.51;40.03
68137;BME280;54939;50.826;9.030;2022-07-11T00:01:44;99274.38;;;23.56;40.25
68137;BME280;54939;50.826;9.030;2022-07-11T00:02:15;99267.03;;;23.57;39.95
68137;BME280;54939;50.826;9.030;2022-07-11T00:02:45;99267.03;;;23.57;39.97
68137;BME280;54939;50.826;9.030;2022-07-11T00:03:15;99268.44;;;23.59;40.05
68137;BME280;54939;50.826;9.030;2022-07-11T00:03:45;99265.97;;;23.58;40.01
68137;BME280;54939;50.826;9.030;2022-07-11T00:04:16;99266.41;;;23.54;40.17
68137;BME280;54939;50.826;9.030;2022-07-11T00:04:46;99260.13;;;23.54;40.15
68137;BME280;54939;50.826;9.030;2022-07-11T00:05:16;99263.06;;;23.52;40.13
68137;BME280;54939;50.826;9.030;2022-07-11T00:05:46;99264.94;;;23.52;40.15
68137;BME280;54939;50.826;9.030;2022-07-11T00:06:17;99256.78;;;23.52;40.28
68137;BME280;54939;50.826;9.030;2022-07-11T00:06:47;99264.09;;;23.51;40.14
68137;BME280;54939;50.826;9.030;2022-07-11T00:07:17;99260.59;;;23.51;39.99
68137;BME280;54939;50.826;9.030;2022-07-11T00:07:47;99258.38;;;23.60;39.88
68137;BME280;54939;50.826;9.030;2022-07-11T00:08:17;99262.41;;;23.57;39.93
68137;BME280;54939;50.826;9.030;2022-07-11T00:08:47;99266.34;;;23.61;39.76
68137;BME280;54939;50.826;9.030;2022-07-11T00:09:18;99264.59;;;23.67;39.92
68137;BME280;54939;50.826;9.030;2022-07-11T00:09:48;99257.94;;;23.63;39.87
68137;BME280;54939;50.826;9.030;2022-07-11T00:10:18;99259.44;;;23.59;39.73
68137;BME280;54939;50.826;9.030;2022-07-11T00:10:48;99260.88;;;23.61;40.08
68137;BME280;54939;50.826;9.030;2022-07-11T00:11:18;99259.84;;;23.62;39.91
68137;BME280;54939;50.826;9.030;2022-07-11T00:11:49;99253.16;;;23.58;39.90
68137;BME280;54939;50.826;9.030;2022-07-11T00:12:20;99256.13;;;23.57;40.03
68137;BME280;54939;50.826;9.030;2022-07-11T00:12:51;99249.22;;;23.54;40.03
68137;BME280;54939;50.826;9.030;2022-07-11T00:13:21;99256.72;;;23.59;39.82
68137;BME280;54939;50.826;9.030;2022-07-11T00:13:51;99252.78;;;23.54;39.87
68137;BME280;54939;50.826;9.030;2022-07-11T00:14:22;99253.63;;;23.55;40.02
68137;BME280;54939;50.826;9.030;2022-07-11T00:14:55;99253.00;;;23.53;39.95
68137;BME280;54939;50.826;9.030;2022-07-11T00:15:25;99258.22;;;23.54;40.06
68137;BME280;54939;50.826;9.030;2022-07-11T00:15:56;99252.09;;;23.59;40.05
68137;BME280;54939;50.826;9.030;2022-07-11T00:16:26;99253.75;;;23.60;40.10
68137;BME280;54939;50.826;9.030;2022-07-11T00:16:56;99245.22;;;23.57;39.82
68137;BME280;54939;50.826;9.030;2022-07-11T00:17:26;99251.94;;;23.54;40.13
68137;BME280;54939;50.826;9.030;2022-07-11T00:17:57;99256.78;;;23.52;40.04
68137;BME280;54939;50.826;9.030;2022-07-11T00:18:27;99249.63;;;23.58;39.80
68137;BME280;54939;50.826;9.030;2022-07-11T00:18:57;99247.09;;;23.56;40.09
68137;BME280;54939;50.826;9.030;2022-07-11T00:19:27;99250.06;;;23.54;40.04
68137;BME280;54939;50.826;9.030;2022-07-11T00:19:57;99247.53;;;23.53;40.26
68137;BME280;54939;50.826;9.030;2022-07-11T00:20:28;99247.09;;;23.56;39.98
68137;BME280;54939;50.826;9.030;2022-07-11T00:20:58;99246.63;;;23.59;40.06
68137;BME280;54939;50.826;9.030;2022-07-11T00:21:29;99239.69;;;23.63;40.08
68137;BME280;54939;50.826;9.030;2022-07-11T00:21:59;99245.53;;;23.67;39.54
68137;BME280;54939;50.826;9.030;2022-07-11T00:22:29;99250.06;;;23.73;39.73
68137;BME280;54939;50.826;9.030;2022-07-11T00:22:59;99248.88;;;23.69;39.84
68137;BME280;54939;50.826;9.030;2022-07-11T00:23:29;99246.34;;;23.67;39.82
68137;BME280;54939;50.826;9.030;2022-07-11T00:24:00;99248.94;;;23.62;39.88
68137;BME280;54939;50.826;9.030;2022-07-11T00:24:30;99250.41;;;23.58;39.91
68137;BME280;54939;50.826;9.030;2022-07-11T00:25:00;99242.03;;;23.60;39.98
68137;BME280;54939;50.826;9.030;2022-07-11T00:25:30;99246.13;;;23.69;39.78
68137;BME280;54939;50.826;9.030;2022-07-11T00:26:00;99244.31;;;23.63;39.67
68137;BME280;54939;50.826;9.030;2022-07-11T00:26:30;99252.94;;;23.60;39.88
68137;BME280;54939;50.826;9.030;2022-07-11T00:27:01;99247.94;;;23.57;40.01
68137;BME280;54939;50.826;9.030;2022-07-11T00:27:31;99244.16;;;23.58;40.20
68137;BME280;54939;50.826;9.030;2022-07-11T00:28:01;99242.72;;;23.55;39.80
68137;BME280;54939;50.826;9.030;2022-07-11T00:28:31;99251.09;;;23.53;39.93
68137;BME280;54939;50.826;9.030;2022-07-11T00:29:01;99242.09;;;23.53;40.10
68137;BME280;54939;50.826;9.030;2022-07-11T00:29:32;99243.97;;;23.52;39.92
68137;BME280;54939;50.826;9.030;2022-07-11T00:30:02;99245.28;;;23.50;40.13
68137;BME280;54939;50.826;9.030;2022-07-11T00:30:32;99249.06;;;23.49;40.32
68137;BME280;54939;50.826;9.030;2022-07-11T00:31:02;99245.44;;;23.55;39.94
68137;BME280;54939;50.826;9.030;2022-07-11T00:31:33;99247.53;;;23.53;40.18
68137;BME280;54939;50.826;9.030;2022-07-11T00:32:03;99244.94;;;23.65;39.87
68137;BME280;54939;50.826;9.030;2022-07-11T00:32:33;99245.75;;;23.65;39.99
68137;BME280;54939;50.826;9.030;2022-07-11T00:33:03;99243.91;;;23.59;40.07
68137;BME280;54939;50.826;9.030;2022-07-11T00:33:33;99242.03;;;23.60;39.95
68137;BME280;54939;50.826;9.030;2022-07-11T00:34:04;99242.22;;;23.65;39.85
68137;BME280;54939;50.826;9.030;2022-07-11T00:34:34;99240.06;;;23.67;39.84
68137;BME280;54939;50.826;9.030;2022-07-11T00:35:04;99244.53;;;23.61;39.82
68137;BME280;54939;50.826;9.030;2022-07-11T00:35:35;99240.59;;;23.57;40.05
68137;BME280;54939;50.826;9.030;2022-07-11T00:36:05;99244.81;;;23.53;40.02
68137;BME280;54939;50.826;9.030;2022-07-11T00:36:35;99236.00;;;23.58;39.80
68137;BME280;54939;50.826;9.030;2022-07-11T00:37:06;99238.94;;;23.56;39.93
68137;BME280;54939;50.826;9.030;2022-07-11T00:37:36;99239.38;;;23.53;40.01
68137;BME280;54939;50.826;9.030;2022-07-11T00:38:06;99242.31;;;23.51;40.09
68137;BME280;54939;50.826;9.030;2022-07-11T00:38:36;99234.13;;;23.51;40.05
68137;BME280;54939;50.826;9.030;2022-07-11T00:39:06;99241.81;;;23.61;39.84
68137;BME280;54939;50.826;9.030;2022-07-11T00:39:37;99235.31;;;23.62;39.96
68137;BME280;54939;50.826;9.030;2022-07-11T00:40:07;99242.03;;;23.60;40.10
68137;BME280;54939;50.826;9.030;2022-07-11T00:40:38;99237.25;;;23.55;39.84
68137;BME280;54939;50.826;9.030;2022-07-11T00:41:08;99230.34;;;23.52;39.90
68137;BME280;54939;50.826;9.030;2022-07-11T00:41:38;99227.88;;;23.51;40.04
68137;BME280;54939;50.826;9.030;2022-07-11T00:42:09;99230.69;;;23.63;39.93
68137;BME280;54939;50.826;9.030;2022-07-11T00:42:40;99228.63;;;23.58;39.90
68137;BME280;54939;50.826;9.030;2022-07-11T00:43:10;99231.81;;;23.55;39.91
68137;BME280;54939;50.826;9.030;2022-07-11T00:43:41;99232.03;;;23.53;39.95
68137;BME280;54939;50.826;9.030;2022-07-11T00:44:11;99225.16;;;23.51;40.08
68137;BME280;54939;50.826;9.030;2022-07-11T00:44:42;99228.03;;;23.56;39.80
68137;BME280;54939;50.826;9.030;2022-07-11T00:45:12;99230.28;;;23.59;40.04
68137;BME280;54939;50.826;9.030;2022-07-11T00:45:42;99231.25;;;23.71;39.61
68137;BME280;54939;50.826;9.030;2022-07-11T00:46:12;99227.88;;;23.69;39.77
68137;BME280;54939;50.826;9.030;2022-07-11T00:46:42;99225.31;;;23.74;39.63
68137;BME280;54939;50.826;9.030;2022-07-11T00:47:12;99219.31;;;23.66;39.84
68137;BME280;54939;50.826;9.030;2022-07-11T00:47:43;99223.78;;;23.60;39.79
68137;BME280;54939;50.826;9.030;2022-07-11T00:48:13;99234.69;;;23.60;39.68
68137;BME280;54939;50.826;9.030;2022-07-11T00:48:43;99222.94;;;23.60;39.83
68137;BME280;54939;50.826;9.030;2022-07-11T00:49:13;99221.88;;;23.61;40.01
68137;BME280;54939;50.826;9.030;2022-07-11T00:49:44;99229.84;;;23.62;39.81
68137;BME280;54939;50.826;9.030;2022-07-11T00:50:15;99227.56;;;23.59;40.08
68137;BME280;54939;50.826;9.030;2022-07-11T00:50:46;99229.22;;;23.60;39.89
68137;BME280;54939;50.826;9.030;2022-07-11T00:51:17;99225.09;;;23.58;39.92
68137;BME280;54939;50.826;9.030;2022-07-11T00:51:48;99220.91;;;23.55;40.15
68137;BME280;54939;50.826;9.030;2022-07-11T00:52:19;99227.88;;;23.51;40.14
68137;BME280;54939;50.826;9.030;2022-07-11T00:52:49;99224.25;;;23.57;39.82
68137;BME280;54939;50.826;9.030;2022-07-11T00:53:20;99220.28;;;23.53;40.20
68137;BME280;54939;50.826;9.030;2022-07-11T00:53:52;99228.03;;;23.56;40.04
68137;BME280;54939;50.826;9.030;2022-07-11T00:54:22;99226.56;;;23.53;40.20
68137;BME280;54939;50.826;9.030;2022-07-11T00:54:53;99226.78;;;23.52;39.96
68137;BME280;54939;50.826;9.030;2022-07-11T00:55:23;99229.78;;;23.50;39.93
68137;BME280;54939;50.826;9.030;2022-07-11T00:55:54;99227.88;;;23.51;40.05
68137;BME280;54939;50.826;9.030;2022-07-11T00:56:25;99227.81;;;23.58;39.89
68137;BME280;54939;50.826;9.030;2022-07-11T00:56:56;99232.19;;;23.59;39.95
68137;BME280;54939;50.826;9.030;2022-07-11T00:57:27;99228.78;;;23.63;39.61
68137;BME280;54939;50.826;9.030;2022-07-11T00:57:57;99223.16;;;23.58;39.93
68137;BME280;54939;50.826;9.030;2022-07-11T00:58:27;99222.78;;;23.54;40.15
68137;BME280;54939;50.826;9.030;2022-07-11T00:58:57;99227.88;;;23.51;39.89
68137;BME280;54939;50.826;9.030;2022-07-11T00:59:29;99216.97;;;23.51;40.18
68137;BME280;54939;50.826;9.030;2022-07-11T00:59:59;99228.47;;;23.53;40.00
68137;BME280;54939;50.826;9.030;2022-07-11T01:00:29;99231.59;;;23.57;40.04
68137;BME280;54939;50.826;9.030;2022-07-11T01:01:00;99229.09;;;23.55;40.15
68137;BME280;54939;50.826;9.030;2022-07-11T01:01:32;99224.06;;;23.52;40.05
68137;BME280;54939;50.826;9.030;2022-07-11T01:02:02;99224.06;;;23.52;39.90
68137;BME280;54939;50.826;9.030;2022-07-11T01:02:34;99224.06;;;23.52;39.94
68137;BME280;54939;50.826;9.030;2022-07-11T01:03:04;99230.28;;;23.59;39.79
68137;BME280;54939;50.826;9.030;2022-07-11T01:03:35;99228.88;;;23.57;39.95
68137;BME280;54939;50.826;9.030;2022-07-11T01:04:05;99225.09;;;23.58;40.14
68137;BME280;54939;50.826;9.030;2022-07-11T01:04:36;99227.41;;;23.54;39.89
68137;BME280;54939;50.826;9.030;2022-07-11T01:05:06;99224.91;;;23.52;40.07
68137;BME280;54939;50.826;9.030;2022-07-11T01:05:37;99220.69;;;23.57;40.07
68137;BME280;54939;50.826;9.030;2022-07-11T01:06:07;99223.00;;;23.53;40.09
68137;BME280;54939;50.826;9.030;2022-07-11T01:06:37;99222.44;;;23.51;39.89
68137;BME280;54939;50.826;9.030;2022-07-11T01:07:07;99230.00;;;23.49;40.06
68137;BME280;54939;50.826;9.030;2022-07-11T01:07:38;99224.31;;;23.50;40.20
68137;BME280;54939;50.826;9.030;2022-07-11T01:08:08;99224.53;;;23.49;40.01
68137;BME280;54939;50.826;9.030;2022-07-11T01:08:39;99222.44;;;23.51;39.96
68137;BME280;54939;50.826;9.030;2022-07-11T01:09:09;99221.34;;;23.52;40.04
68137;BME280;54939;50.826;9.030;2022-07-11T01:09:40;99218.19;;;23.55;40.16
68137;BME280;54939;50.826;9.030;2022-07-11T01:10:10;99219.44;;;23.52;39.89
68137;BME280;54939;50.826;9.030;2022-07-11T01:10:40;99223.00;;;23.53;40.06
68137;BME280;54939;50.826;9.030;2022-07-11T01:11:11;99221.13;;;23.53;40.06
68137;BME280;54939;50.826;9.030;2022-07-11T01:11:48;99223.22;;;23.51;40.15
68137;BME280;54939;50.826;9.030;2022-07-11T01:12:19;99220.75;;;23.50;39.98
68137;BME280;54939;50.826;9.030;2022-07-11T01:12:49;99216.34;;;23.49;39.96
68137;BME280;54939;50.826;9.030;2022-07-11T01:13:20;99216.16;;;23.50;40.15
68137;BME280;54939;50.826;9.030;2022-07-11T01:13:52;99214.69;;;23.48;40.09
68137;BME280;54939;50.826;9.030;2022-07-11T01:14:22;99218.19;;;23.55;40.10
68137;BME280;54939;50.826;9.030;2022-07-11T01:14:53;99213.34;;;23.57;40.01
68137;BME280;54939;50.826;9.030;2022-07-11T01:15:24;99218.19;;;23.55;40.09
68137;BME280;54939;50.826;9.030;2022-07-11T01:16:07;99213.41;;;23.50;40.06
68137;BME280;54939;50.826;9.030;2022-07-11T01:16:37;99212.31;;;23.51;40.13
68137;BME280;54939;50.826;9.030;2022-07-11T01:17:08;99214.84;;;23.53;40.09
68137;BME280;54939;50.826;9.030;2022-07-11T01:17:38;99205.81;;;23.52;39.90
68137;BME280;54939;50.826;9.030;2022-07-11T01:18:08;99210.44;;;23.52;40.05
68137;BME280;54939;50.826;9.030;2022-07-11T01:18:39;99208.81;;;23.51;40.04
68137;BME280;54939;50.826;9.030;2022-07-11T01:19:09;99210.25;;;23.47;40.30
68137;BME280;54939;50.826;9.030;2022-07-11T01:19:39;99202.50;;;23.50;40.05
68137;BME280;54939;50.826;9.030;2022-07-11T01:20:10;99202.72;;;23.49;40.05
68137;BME280;54939;50.826;9.030;2022-07-11T01:20:40;99200.84;;;23.49;40.14
68137;BME280;54939;50.826;9.030;2022-07-11T01:21:22;99202.94;;;23.47;40.12
68137;BME280;54939;50.826;9.030;2022-07-11T01:21:52;99203.94;;;23.53;40.04
68137;BME280;54939;50.826;9.030;2022-07-11T01:22:26;99198.88;;;23.57;39.98
68137;BME280;54939;50.826;9.030;2022-07-11T01:23:07;99200.38;;;23.52;39.95
68137;BME280;54939;50.826;9.030;2022-07-11T01:23:37;99206.88;;;23.51;39.88
68137;BME280;54939;50.826;9.030;2022-07-11T01:24:08;99200.16;;;23.72;39.83
68137;BME280;54939;50.826;9.030;2022-07-11T01:24:38;99202.13;;;23.65;39.77
68137;BME280;54939;50.826;9.030;2022-07-11T01:25:09;99209.44;;;23.71;39.52
68137;BME280;54939;50.826;9.030;2022-07-11T01:25:39;99206.53;;;23.66;39.68
68137;BME280;54939;50.826;9.030;2022-07-11T01:26:09;99210.16;;;23.60;39.71
68137;BME280;54939;50.826;9.030;2022-07-11T01:26:40;99201.84;;;23.55;40.03
68137;BME280;54939;50.826;9.030;2022-07-11T01:27:11;99207.91;;;23.57;40.01
68137;BME280;54939;50.826;9.030;2022-07-11T01:27:42;99204.78;;;23.53;40.00
68137;BME280;54939;50.826;9.030;2022-07-11T01:28:12;99204.16;;;23.51;40.18
68137;BME280;54939;50.826;9.030;2022-07-11T01:28:42;99205.25;;;23.50;40.04
68137;BME280;54939;50.826;9.030;2022-07-11T01:29:13;99201.69;;;23.50;40.16
68137;BME280;54939;50.826;9.030;2022-07-11T01:29:43;99202.72;;;23.49;40.06
68137;BME280;54939;50.826;9.030;2022-07-11T01:30:13;99207.34;;;23.48;40.16
68137;BME280;54939;50.826;9.030;2022-07-11T01:30:43;99201.06;;;23.48;40.16
68137;BME280;54939;50.826;9.030;2022-07-11T01:31:14;99209.25;;;23.48;40.27
68137;BME280;54939;50.826;9.030;2022-07-11T01:31:44;99206.66;;;23.53;39.93
68137;BME280;54939;50.826;9.030;2022-07-11T01:32:17;99205.69;;;23.47;40.20
68137;BME280;54939;50.826;9.030;2022-07-11T01:32:47;99206.91;;;23.45;40.30
68137;BME280;54939;50.826;9.030;2022-07-11T01:33:20;99206.50;;;23.48;40.22
68137;BME280;54939;50.826;9.030;2022-07-11T01:33:50;99202.94;;;23.47;40.04
68137;BME280;54939;50.826;9.030;2022-07-11T01:34:20;99208.81;;;23.51;40.27
68137;BME280;54939;50.826;9.030;2022-07-11T01:34:51;99205.69;;;23.47;40.10
68137;BME280;54939;50.826;9.030;2022-07-11T01:35:21;99210.25;;;23.47;40.14
68137;BME280;54939;50.826;9.030;2022-07-11T01:35:52;99206.66;;;23.53;40.01
68137;BME280;54939;50.826;9.030;2022-07-11T01:36:22;99201.34;;;23.58;40.09
68137;BME280;54939;50.826;9.030;2022-07-11T01:38:12;99206.50;;;23.48;40.26
68137;BME280;54939;50.826;9.030;2022-07-11T01:38:42;99202.94;;;23.47;40.15
68137;BME280;54939;50.826;9.030;2022-07-11T01:39:12;99205.88;;;23.46;40.30
68137;BME280;54939;50.826;9.030;2022-07-11T01:39:43;99201.06;;;23.48;40.24
68137;BME280;54939;50.826;9.030;2022-07-11T01:40:13;99204.16;;;23.51;40.14
68137;BME280;54939;50.826;9.030;2022-07-11T01:40:43;99206.28;;;23.49;40.29
68137;BME280;54939;50.826;9.030;2022-07-11T01:41:13;99206.81;;;23.58;40.08
68137;BME280;54939;50.826;9.030;2022-07-11T01:41:44;99199.88;;;23.62;40.00
68137;BME280;54939;50.826;9.030;2022-07-11T01:42:14;99206.00;;;23.58;39.79
68137;BME280;54939;50.826;9.030;2022-07-11T01:42:44;99201.34;;;23.58;39.79
68137;BME280;54939;50.826;9.030;2022-07-11T01:43:14;99206.81;;;23.58;39.94
68137;BME280;54939;50.826;9.030;2022-07-11T01:43:44;99208.94;;;23.56;40.11
68137;BME280;54939;50.826;9.030;2022-07-11T01:44:14;99201.34;;;23.58;39.75
68137;BME280;54939;50.826;9.030;2022-07-11T01:44:44;99207.50;;;23.53;39.85
68137;BME280;54939;50.826;9.030;2022-07-11T01:45:15;99206.00;;;23.58;39.80
68137;BME280;54939;50.826;9.030;2022-07-11T01:45:45;99203.28;;;23.58;39.95
68137;BME280;54939;50.826;9.030;2022-07-11T01:46:15;99199.09;;;23.55;39.86
68137;BME280;54939;50.826;9.030;2022-07-11T01:46:46;99194.34;;;23.50;40.08
68137;BME280;54939;50.826;9.030;2022-07-11T01:47:16;99197.44;;;23.54;39.86
68137;BME280;54939;50.826;9.030;2022-07-11T01:47:46;99195.09;;;23.58;39.90
68137;BME280;54939;50.826;9.030;2022-07-11T01:48:17;99199.94;;;23.55;39.99
68137;BME280;54939;50.826;9.030;2022-07-11T01:48:47;99198.47;;;23.53;39.87
68137;BME280;54939;50.826;9.030;2022-07-11T01:49:17;99206.50;;;23.48;40.20
68137;BME280;54939;50.826;9.030;2022-07-11T01:49:47;99202.25;;;23.52;40.06
68137;BME280;54939;50.826;9.030;2022-07-11T01:50:18;99201.91;;;23.48;40.13
68137;BME280;54939;50.826;9.030;2022-07-11T01:50:48;99196.44;;;23.48;40.19
68137;BME280;54939;50.826;9.030;2022-07-11T01:51:18;99199.78;;;23.50;39.92
68137;BME280;54939;50.826;9.030;2022-07-11T01:51:48;99201.91;;;23.48;40.26
68137;BME280;54939;50.826;9.030;2022-07-11T01:52:19;99201.34;;;23.58;39.99
68137;BME280;54939;50.826;9.030;2022-07-11T01:52:49;99197.66;;;23.52;40.04
68137;BME280;54939;50.826;9.030;2022-07-11T01:53:19;99200.84;;;23.49;40.13
68137;BME280;54939;50.826;9.030;2022-07-11T01:53:49;99199.56;;;23.45;40.37
68137;BME280;54939;50.826;9.030;2022-07-11T01:54:19;99202.94;;;23.47;40.13
68137;BME280;54939;50.826;9.030;2022-07-11T01:54:49;99197.66;;;23.52;40.23
68137;BME280;54939;50.826;9.030;2022-07-11T01:55:20;99201.44;;;23.51;40.15
68137;BME280;54939;50.826;9.030;2022-07-11T01:55:50;99192.06;;;23.47;40.34
68137;BME280;54939;50.826;9.030;2022-07-11T01:56:23;99203.28;;;23.58;40.08
68137;BME280;54939;50.826;9.030;2022-07-11T01:56:53;99199.03;;;23.62;39.69
68137;BME280;54939;50.826;9.030;2022-07-11T01:57:24;99199.09;;;23.55;39.76
68137;BME280;54939;50.826;9.030;2022-07-11T01:57:54;99197.66;;;23.52;40.08
68137;BME280;54939;50.826;9.030;2022-07-11T01:58:24;99198.47;;;23.53;40.10
68137;BME280;54939;50.826;9.030;2022-07-11T01:58:54;99199.09;;;23.55;39.95
68137;BME280;54939;50.826;9.030;2022-07-11T01:59:24;99194.94;;;23.52;40.14
68137;BME280;54939;50.826;9.030;2022-07-11T01:59:54;99199.19;;;23.48;40.00
68137;BME280;54939;50.826;9.030;2022-07-11T02:00:25;99199.47;;;23.59;40.06
68137;BME280;54939;50.826;9.030;2022-07-11T02:00:55;99197.66;;;23.52;40.08
68137;BME280;54939;50.826;9.030;2022-07-11T02:01:25;99194.78;;;23.47;40.24
68137;BME280;54939;50.826;9.030;2022-07-11T02:01:56;99198.75;;;23.45;40.11
68137;BME280;54939;50.826;9.030;2022-07-11T02:02:28;99201.47;;;23.45;40.35
68137;BME280;54939;50.826;9.030;2022-07-11T02:02:58;99197.28;;;23.49;40.05
68137;BME280;54939;50.826;9.030;2022-07-11T02:03:28;99195.44;;;23.43;40.22
68137;BME280;54939;50.826;9.030;2022-07-11T02:03:59;99198.97;;;23.50;40.09
68137;BME280;54939;50.826;9.030;2022-07-11T02:04:30;99202.31;;;23.45;40.18
68137;BME280;54939;50.826;9.030;2022-07-11T02:05:00;99204.16;;;23.51;40.08
68137;BME280;54939;50.826;9.030;2022-07-11T02:05:30;99192.19;;;23.52;40.21
68137;BME280;54939;50.826;9.030;2022-07-11T02:06:01;99196.44;;;23.48;40.16
68137;BME280;54939;50.826;9.030;2022-07-11T02:06:31;99200.63;;;23.44;40.37
68137;BME280;54939;50.826;9.030;2022-07-11T02:07:02;99202.56;;;23.44;40.08
68137;BME280;54939;50.826;9.030;2022-07-11T02:07:32;99196.63;;;23.47;40.21
68137;BME280;54939;50.826;9.030;2022-07-11T02:08:21;99199.34;;;23.47;39.99
68137;BME280;54939;50.826;9.030;2022-07-11T02:08:51;99197.66;;;23.52;40.23
68137;BME280;54939;50.826;9.030;2022-07-11T02:09:21;99204.69;;;23.60;39.81
68137;BME280;54939;50.826;9.030;2022-07-11T02:09:51;99194.78;;;23.66;39.60
68137;BME280;54939;50.826;9.030;2022-07-11T02:10:22;99192.97;;;23.60;39.89
68137;BME280;54939;50.826;9.030;2022-07-11T02:10:52;99198.88;;;23.57;39.92
68137;BME280;54939;50.826;9.030;2022-07-11T02:11:22;99203.94;;;23.53;40.26
68137;BME280;54939;50.826;9.030;2022-07-11T02:11:53;99196.16;;;23.57;39.91
68137;BME280;54939;50.826;9.030;2022-07-11T02:12:23;99202.25;;;23.52;39.86
68137;BME280;54939;50.826;9.030;2022-07-11T02:12:57;99200.38;;;23.52;40.10
68137;BME280;54939;50.826;9.030;2022-07-11T02:13:28;99196.59;;;23.53;40.24
68137;BME280;54939;50.826;9.030;2022-07-11T02:13:58;99195.31;;;23.56;39.99
68137;BME280;54939;50.826;9.030;2022-07-11T02:14:29;99200.31;;;23.59;39.79
68137;BME280;54939;50.826;9.030;2022-07-11T02:14:59;99194.34;;;23.50;40.01
68137;BME280;54939;50.826;9.030;2022-07-11T02:15:29;99195.75;;;23.53;39.98
68137;BME280;54939;50.826;9.030;2022-07-11T02:16:00;99199.34;;;23.47;40.19
68137;BME280;54939;50.826;9.030;2022-07-11T02:16:32;99199.81;;;23.44;40.20
68137;BME280;54939;50.826;9.030;2022-07-11T02:17:02;99197.09;;;23.44;40.20
68137;BME280;54939;50.826;9.030;2022-07-11T02:17:32;99201.91;;;23.48;40.11
68137;BME280;54939;50.826;9.030;2022-07-11T02:18:03;99204.16;;;23.51;40.06
68137;BME280;54939;50.826;9.030;2022-07-11T02:18:33;99196.22;;;23.50;39.87
68137;BME280;54939;50.826;9.030;2022-07-11T02:19:04;99197.50;;;23.47;40.08
68137;BME280;54939;50.826;9.030;2022-07-11T02:19:36;99194.56;;;23.49;39.91
68137;BME280;54939;50.826;9.030;2022-07-11T02:20:06;99193.72;;;23.48;40.15
68137;BME280;54939;50.826;9.030;2022-07-11T02:20:38;99190.16;;;23.48;39.94
68137;BME280;54939;50.826;9.030;2022-07-11T02:21:08;99201.44;;;23.51;40.20
68137;BME280;54939;50.826;9.030;2022-07-11T02:21:39;99197.09;;;23.44;40.22
68137;BME280;54939;50.826;9.030;2022-07-11T02:22:09;99194.59;;;23.42;40.29
68137;BME280;54939;50.826;9.030;2022-07-11T02:22:40;99193.03;;;23.53;40.14
68137;BME280;54939;50.826;9.030;2022-07-11T02:23:11;99190.09;;;23.54;39.92
68137;BME280;54939;50.826;9.030;2022-07-11T02:23:42;99197.06;;;23.50;40.01
68137;BME280;54939;50.826;9.030;2022-07-11T02:24:12;99192.44;;;23.51;39.86
68137;BME280;54939;50.826;9.030;2022-07-11T02:24:42;99190.16;;;23.48;40.05
68137;BME280;54939;50.826;9.030;2022-07-11T02:25:12;99195.19;;;23.51;40.13
68137;BME280;54939;50.826;9.030;2022-07-11T02:25:43;99195.59;;;23.48;40.02
68137;BME280;54939;50.826;9.030;2022-07-11T02:26:13;99191.19;;;23.47;40.21
68137;BME280;54939;50.826;9.030;2022-07-11T02:26:43;99190.94;;;23.55;39.90
68137;BME280;54939;50.826;9.030;2022-07-11T02:27:13;99191.38;;;23.52;40.07
68137;BME280;54939;50.826;9.030;2022-07-11T02:27:44;99181.31;;;23.52;40.11
68137;BME280;54939;50.826;9.030;2022-07-11T02:28:14;99188.63;;;23.52;39.92
68137;BME280;54939;50.826;9.030;2022-07-11T02:28:44;99190.84;;;23.62;39.93
68137;BME280;54939;50.826;9.030;2022-07-11T02:29:15;99188.41;;;23.53;40.13
68137;BME280;54939;50.826;9.030;2022-07-11T02:29:45;99184.50;;;23.49;39.96
68137;BME280;54939;50.826;9.030;2022-07-11T02:30:15;99189.66;;;23.58;39.76
68137;BME280;54939;50.826;9.030;2022-07-11T02:30:45;99185.69;;;23.53;39.87
68137;BME280;54939;50.826;9.030;2022-07-11T02:31:16;99185.94;;;23.45;40.11
68137;BME280;54939;50.826;9.030;2022-07-11T02:31:46;99186.41;;;23.42;40.16
68137;BME280;54939;50.826;9.030;2022-07-11T02:32:16;99192.88;;;23.48;39.91
68137;BME280;54939;50.826;9.030;2022-07-11T02:32:46;99184.72;;;23.48;39.96
68137;BME280;54939;50.826;9.030;2022-07-11T02:33:16;99182.59;;;23.50;39.92
68137;BME280;54939;50.826;9.030;2022-07-11T02:33:47;99191.19;;;23.47;40.10
68137;BME280;54939;50.826;9.030;2022-07-11T02:34:17;99189.09;;;23.49;40.04
68137;BME280;54939;50.826;9.030;2022-07-11T02:34:47;99185.25;;;23.57;39.89
68137;BME280;54939;50.826;9.030;2022-07-11T02:35:18;99187.50;;;23.60;39.90
68137;BME280;54939;50.826;9.030;2022-07-11T02:35:48;99181.47;;;23.58;39.66
68137;BME280;54939;50.826;9.030;2022-07-11T02:36:18;99189.66;;;23.58;40.05
68137;BME280;54939;50.826;9.030;2022-07-11T02:36:49;99186.16;;;23.50;40.12
68137;BME280;54939;50.826;9.030;2022-07-11T02:37:19;99186.38;;;23.49;40.07
68137;BME280;54939;50.826;9.030;2022-07-11T02:37:49;99188.94;;;23.44;40.30
68137;BME280;54939;50.826;9.030;2022-07-11T02:38:19;99184.03;;;23.52;39.97
68137;BME280;54939;50.826;9.030;2022-07-11T02:38:49;99192.06;;;23.47;40.23
68137;BME280;54939;50.826;9.030;2022-07-11T02:39:20;99182.59;;;23.50;40.18
68137;BME280;54939;50.826;9.030;2022-07-11T02:39:50;99187.28;;;23.61;39.99
68137;BME280;54939;50.826;9.030;2022-07-11T02:40:20;99185.69;;;23.53;39.91
68137;BME280;54939;50.826;9.030;2022-07-11T02:40:51;99187.81;;;23.51;40.19
68137;BME280;54939;50.826;9.030;2022-07-11T02:41:21;99188.34;;;23.60;39.70
68137;BME280;54939;50.826;9.030;2022-07-11T02:41:51;99189.47;;;23.52;39.95
68137;BME280;54939;50.826;9.030;2022-07-11T02:42:22;99183.19;;;23.52;39.92
68137;BME280;54939;50.826;9.030;2022-07-11T02:42:52;99182.59;;;23.50;40.13
68137;BME280;54939;50.826;9.030;2022-07-11T02:43:23;99190.81;;;23.43;40.26